Time;durP1;ratioP1;P1;durP2;ratioP2;P2;SDS_P1;SDS_P2;PMS_P1;PMS_P2;Temp;Humidity;BMP_temperature;BMP_pressure;BME280_temperature;BME280_humidity;BME280_pressure;Samples;Min_cycle;Max_cycle;Signal;HPM_P1;HPM_P2
2022/07/26 00:00:08;;;;;;;;;1.33;1.00;;;;;;;;5038439;28;45391;-75
2022/07/26 00:02:34;;;;;;;;;3.00;1.67;;;;;;;;5038446;28;45484;-75
2022/07/26 00:04:59;;;;;;;;;1.00;0.00;;;;;;;;5037705;28;45644;-75
2022/07/26 00:07:24;;;;;;;;;3.33;3.00;;;;;;;;5038213;28;45176;-75
2022/07/26 00:09:49;;;;;;;;;5.67;3.67;;;;;;;;5038420;28;45371;-75
2022/07/26 00:12:14;;;;;;;;;2.67;2.00;;;;;;;;5038478;28;45248;-75
2022/07/26 00:14:40;;;;;;;;;2.67;2.00;;;;;;;;5038140;28;45348;-76
2022/07/26 00:17:05;;;;;;;;;3.00;2.00;;;;;;;;5038201;28;45210;-76
2022/07/26 00:19:30;;;;;;;;;5.33;3.00;;;;;;;;5037181;28;45422;-75
2022/07/26 00:24:40;;;;;;;;;2.67;2.33;;;;;;;;5037909;28;45871;-74
2022/07/26 00:27:05;;;;;;;;;2.00;2.00;;;;;;;;5037704;28;45334;-75
2022/07/26 00:29:30;;;;;;;;;3.00;2.00;;;;;;;;5037972;28;45199;-75
2022/07/26 00:31:56;;;;;;;;;2.33;2.00;;;;;;;;5038165;28;45310;-75
2022/07/26 00:34:21;;;;;;;;;3.00;2.67;;;;;;;;5037860;28;46361;-74
2022/07/26 00:36:46;;;;;;;;;4.33;2.00;;;;;;;;5037823;28;45204;-75
2022/07/26 00:39:11;;;;;;;;;2.00;1.00;;;;;;;;5037883;28;45239;-76
2022/07/26 00:41:36;;;;;;;;;3.00;1.67;;;;;;;;5037762;28;45378;-76
2022/07/26 00:44:03;;;;;;;;;5.00;2.00;;;;;;;;5037488;28;46306;-76
2022/07/26 00:46:28;;;;;;;;;3.67;2.00;;;;;;;;5037452;28;45168;-76
2022/07/26 00:48:53;;;;;;;;;2.67;1.67;;;;;;;;5037705;28;45205;-75
2022/07/26 00:51:19;;;;;;;;;1.67;1.67;;;;;;;;5037906;28;45587;-74
2022/07/26 00:53:45;;;;;;;;;3.00;1.33;;;;;;;;5037485;28;46766;-74
2022/07/26 00:56:13;;;;;;;;;2.00;1.00;;;;;;;;5036726;28;45351;-74
2022/07/26 00:58:38;;;;;;;;;2.33;1.67;;;;;;;;5037531;28;45310;-75
2022/07/26 01:01:03;;;;;;;;;1.33;1.33;;;;;;;;5037578;28;45634;-74
2022/07/26 01:03:28;;;;;;;;;2.33;2.00;;;;;;;;5037105;28;45443;-75
2022/07/26 01:05:54;;;;;;;;;7.00;2.00;;;;;;;;5037443;28;45437;-74
2022/07/26 01:08:19;;;;;;;;;7.00;4.00;;;;;;;;5037425;28;45803;-74
2022/07/26 01:10:45;;;;;;;;;4.00;4.00;;;;;;;;5037921;28;45321;-74
2022/07/26 01:13:11;;;;;;;;;4.00;3.00;;;;;;;;5036178;28;45313;-75
2022/07/26 01:15:36;;;;;;;;;5.00;3.00;;;;;;;;5037243;28;45274;-73
2022/07/26 01:18:01;;;;;;;;;2.33;2.33;;;;;;;;5037570;28;45452;-75
2022/07/26 01:20:27;;;;;;;;;3.00;2.00;;;;;;;;5037260;28;45394;-74
2022/07/26 01:22:52;;;;;;;;;1.00;1.00;;;;;;;;5037005;28;46208;-75
2022/07/26 01:25:27;;;;;;;;;3.67;2.67;;;;;;;;5037239;28;45246;-74
2022/07/26 01:27:52;;;;;;;;;10.00;3.00;;;;;;;;5037064;28;45233;-75
2022/07/26 01:30:17;;;;;;;;;3.33;1.67;;;;;;;;5039423;28;45362;-75
2022/07/26 01:32:42;;;;;;;;;4.33;3.33;;;;;;;;5040506;28;46033;-75
2022/07/26 01:35:08;;;;;;;;;0.00;0.00;;;;;;;;5040737;28;45322;-74
2022/07/26 01:37:33;;;;;;;;;5.00;3.00;;;;;;;;5040935;28;45297;-75
2022/07/26 01:39:58;;;;;;;;;2.67;2.00;;;;;;;;5040641;28;45209;-74
2022/07/26 01:42:23;;;;;;;;;4.67;1.33;;;;;;;;5040390;28;45644;-74
2022/07/26 01:44:49;;;;;;;;;4.00;3.33;;;;;;;;5040404;28;45537;-75
2022/07/26 01:47:14;;;;;;;;;2.00;2.00;;;;;;;;5040660;28;45354;-75
2022/07/26 01:49:39;;;;;;;;;3.00;2.67;;;;;;;;5040564;28;45302;-74
2022/07/26 01:52:04;;;;;;;;;3.67;1.33;;;;;;;;5040320;28;45428;-75
2022/07/26 01:54:30;;;;;;;;;2.33;2.33;;;;;;;;5040184;28;45333;-75
2022/07/26 01:56:55;;;;;;;;;3.33;1.00;;;;;;;;5040323;28;45459;-75
2022/07/26 01:59:20;;;;;;;;;4.33;3.00;;;;;;;;5040429;28;45405;-74
2022/07/26 02:01:45;;;;;;;;;4.67;1.67;;;;;;;;5040041;28;45453;-74
2022/07/26 02:04:57;;;;;;;;;1.67;1.67;;;;;;;;5040013;28;45359;-75
2022/07/26 02:06:56;;;;;;;;;7.67;2.00;;;;;;;;5040018;28;45413;-75
2022/07/26 02:09:21;;;;;;;;;5.33;2.33;;;;;;;;5040259;28;45287;-75
2022/07/26 02:11:47;;;;;;;;;3.00;2.33;;;;;;;;5039965;28;45463;-75
2022/07/26 02:14:13;;;;;;;;;4.00;2.33;;;;;;;;5038861;28;45395;-75
2022/07/26 02:16:38;;;;;;;;;3.67;2.00;;;;;;;;5040129;28;45404;-75
2022/07/26 02:19:03;;;;;;;;;3.33;3.00;;;;;;;;5039938;28;45422;-75
2022/07/26 02:21:28;;;;;;;;;4.00;2.00;;;;;;;;5039799;28;46431;-75
2022/07/26 02:23:54;;;;;;;;;7.00;4.00;;;;;;;;5039931;28;45338;-74
2022/07/26 02:26:19;;;;;;;;;2.67;2.00;;;;;;;;5039991;28;45335;-76
2022/07/26 02:28:44;;;;;;;;;7.33;3.33;;;;;;;;5039837;28;45373;-75
2022/07/26 02:31:09;;;;;;;;;4.00;3.00;;;;;;;;5039617;28;45819;-75
2022/07/26 02:33:34;;;;;;;;;4.00;4.00;;;;;;;;5039727;28;45212;-75
2022/07/26 02:36:00;;;;;;;;;2.33;2.00;;;;;;;;5039757;28;45335;-75
2022/07/26 02:38:25;;;;;;;;;6.00;3.00;;;;;;;;5040058;28;45370;-74
2022/07/26 02:40:51;;;;;;;;;3.67;2.67;;;;;;;;5038794;28;46383;-74
2022/07/26 02:43:16;;;;;;;;;4.67;3.00;;;;;;;;5039384;28;45579;-76
2022/07/26 02:45:41;;;;;;;;;7.67;3.00;;;;;;;;5039557;28;45152;-75
2022/07/26 02:48:07;;;;;;;;;6.33;3.33;;;;;;;;5039552;28;45417;-74
2022/07/26 02:50:32;;;;;;;;;5.00;4.00;;;;;;;;5039275;28;47378;-75
2022/07/26 02:52:57;;;;;;;;;3.33;3.33;;;;;;;;5039361;28;45532;-74
2022/07/26 02:55:24;;;;;;;;;3.00;2.00;;;;;;;;5039490;28;45142;-73
2022/07/26 02:57:50;;;;;;;;;4.00;3.33;;;;;;;;5039638;28;45543;-74
2022/07/26 03:00:16;;;;;;;;;4.00;4.00;;;;;;;;5038980;28;46463;-74
2022/07/26 03:02:42;;;;;;;;;3.67;3.33;;;;;;;;5038927;28;45375;-75
2022/07/26 03:05:07;;;;;;;;;4.67;3.33;;;;;;;;5039336;28;45243;-74
2022/07/26 03:07:33;;;;;;;;;7.67;5.00;;;;;;;;5039412;28;45278;-74
2022/07/26 03:09:58;;;;;;;;;4.00;4.00;;;;;;;;5039019;28;45463;-74
2022/07/26 03:12:24;;;;;;;;;5.00;3.67;;;;;;;;5038862;28;45291;-75
2022/07/26 03:14:49;;;;;;;;;3.33;3.00;;;;;;;;5039098;28;45313;-73
2022/07/26 03:17:15;;;;;;;;;5.67;2.33;;;;;;;;5039307;28;45306;-75
2022/07/26 03:19:40;;;;;;;;;6.33;3.67;;;;;;;;5038762;28;45405;-73
2022/07/26 03:22:05;;;;;;;;;7.33;2.33;;;;;;;;5038932;28;45505;-75
2022/07/26 03:24:30;;;;;;;;;3.00;2.33;;;;;;;;5039073;28;45228;-75
2022/07/26 03:26:55;;;;;;;;;2.67;2.33;;;;;;;;5039397;28;45229;-74
2022/07/26 03:29:21;;;;;;;;;3.00;3.00;;;;;;;;5038695;28;46470;-74
2022/07/26 03:31:46;;;;;;;;;3.00;3.00;;;;;;;;5038833;28;45426;-74
2022/07/26 03:34:12;;;;;;;;;4.00;4.00;;;;;;;;5038882;28;45367;-74
2022/07/26 03:36:37;;;;;;;;;5.67;5.67;;;;;;;;5038834;28;45621;-74
2022/07/26 03:39:02;;;;;;;;;6.67;3.00;;;;;;;;5038726;28;45212;-75
2022/07/26 03:41:30;;;;;;;;;12.33;6.33;;;;;;;;5038540;28;45247;-74
2022/07/26 03:43:55;;;;;;;;;4.67;3.00;;;;;;;;5038700;28;45322;-74
2022/07/26 03:46:20;;;;;;;;;3.67;3.67;;;;;;;;5038864;28;45295;-74
2022/07/26 03:48:46;;;;;;;;;2.67;2.67;;;;;;;;5038440;28;46616;-74
2022/07/26 03:51:11;;;;;;;;;5.67;1.67;;;;;;;;5038467;28;45369;-74
2022/07/26 03:53:36;;;;;;;;;8.00;3.00;;;;;;;;5037454;28;45323;-73
2022/07/26 03:58:45;;;;;;;;;6.00;3.67;;;;;;;;5038177;28;45373;-74
2022/07/26 04:01:10;;;;;;;;;4.67;3.67;;;;;;;;5038272;28;45446;-75
2022/07/26 04:03:35;;;;;;;;;5.00;3.33;;;;;;;;5038106;28;45322;-74
2022/07/26 04:06:01;;;;;;;;;6.00;3.00;;;;;;;;5038536;28;45365;-74
2022/07/26 04:08:26;;;;;;;;;6.00;4.33;;;;;;;;5038030;28;46591;-75
2022/07/26 04:10:52;;;;;;;;;3.33;3.00;;;;;;;;5038067;28;45362;-76
2022/07/26 04:13:17;;;;;;;;;2.67;2.67;;;;;;;;5038220;28;45407;-77
2022/07/26 04:15:43;;;;;;;;;3.33;3.00;;;;;;;;5038407;28;46249;-76
2022/07/26 04:18:08;;;;;;;;;6.67;4.00;;;;;;;;5020106;28;46333;-74
2022/07/26 04:20:33;;;;;;;;;5.67;2.67;;;;;;;;5038012;28;45402;-75
2022/07/26 04:22:58;;;;;;;;;4.67;3.33;;;;;;;;5038231;28;45354;-74
2022/07/26 04:25:24;;;;;;;;;1.00;1.00;;;;;;;;5038250;28;45450;-74
2022/07/26 04:27:49;;;;;;;;;2.33;2.33;;;;;;;;5037810;28;46659;-75
2022/07/26 04:30:14;;;;;;;;;2.00;2.00;;;;;;;;5037767;28;45307;-75
2022/07/26 04:32:40;;;;;;;;;4.33;3.00;;;;;;;;5038042;28;45267;-75
2022/07/26 04:35:05;;;;;;;;;3.00;3.00;;;;;;;;5038255;28;45350;-75
2022/07/26 04:37:37;;;;;;;;;6.67;3.67;;;;;;;;5037673;28;47246;-74
2022/07/26 04:40:02;;;;;;;;;3.00;2.00;;;;;;;;5037857;28;45456;-75
2022/07/26 04:42:27;;;;;;;;;2.33;2.33;;;;;;;;5037819;28;45326;-75
2022/07/26 04:44:53;;;;;;;;;3.00;1.67;;;;;;;;5037899;28;45422;-74
2022/07/26 04:47:18;;;;;;;;;3.67;3.67;;;;;;;;5037625;28;45500;-77
2022/07/26 04:49:43;;;;;;;;;4.00;2.33;;;;;;;;5037619;28;45377;-75
2022/07/26 04:52:08;;;;;;;;;2.00;2.00;;;;;;;;5037797;28;45362;-75
2022/07/26 04:54:33;;;;;;;;;3.00;3.00;;;;;;;;5037720;28;45431;-75
2022/07/26 04:56:59;;;;;;;;;2.00;2.00;;;;;;;;5037480;28;46239;-75
2022/07/26 04:59:24;;;;;;;;;5.67;2.33;;;;;;;;5037515;28;45353;-76
2022/07/26 05:01:49;;;;;;;;;4.67;3.00;;;;;;;;5037633;28;45299;-74
2022/07/26 05:04:14;;;;;;;;;2.67;2.67;;;;;;;;5036992;28;45246;-74
2022/07/26 05:06:39;;;;;;;;;3.00;3.00;;;;;;;;5037219;28;45211;-75
2022/07/26 05:09:05;;;;;;;;;3.67;2.00;;;;;;;;5037455;28;45294;-76
2022/07/26 05:11:30;;;;;;;;;3.33;3.33;;;;;;;;5037391;28;45522;-76
2022/07/26 05:13:55;;;;;;;;;4.33;3.00;;;;;;;;5037297;28;45253;-74
2022/07/26 05:16:20;;;;;;;;;7.00;3.00;;;;;;;;5037302;28;47160;-74
2022/07/26 05:18:46;;;;;;;;;4.67;3.00;;;;;;;;5037059;28;45291;-74
2022/07/26 05:21:11;;;;;;;;;11.00;3.00;;;;;;;;5037313;28;45461;-74
2022/07/26 05:23:36;;;;;;;;;4.67;3.00;;;;;;;;5037207;28;45369;-74
2022/07/26 05:26:01;;;;;;;;;4.33;3.00;;;;;;;;5037031;28;45366;-74
2022/07/26 05:28:26;;;;;;;;;7.00;5.00;;;;;;;;5037153;28;45306;-74
2022/07/26 05:30:52;;;;;;;;;10.33;7.33;;;;;;;;5037015;28;45299;-74
2022/07/26 05:33:17;;;;;;;;;8.00;7.00;;;;;;;;5037390;28;45275;-75
2022/07/26 05:35:42;;;;;;;;;4.67;2.00;;;;;;;;5037010;28;47122;-74
2022/07/26 05:38:08;;;;;;;;;2.00;2.00;;;;;;;;5036971;28;45440;-74
2022/07/26 05:40:33;;;;;;;;;5.00;3.00;;;;;;;;5037042;28;45223;-75
2022/07/26 05:42:58;;;;;;;;;4.00;4.00;;;;;;;;5037344;28;45522;-75
2022/07/26 05:45:23;;;;;;;;;4.67;4.00;;;;;;;;5036713;28;47304;-74
2022/07/26 05:47:49;;;;;;;;;5.00;4.00;;;;;;;;5018985;28;45192;-74
2022/07/26 05:50:15;;;;;;;;;3.00;3.00;;;;;;;;5037084;28;45365;-75
2022/07/26 05:52:40;;;;;;;;;5.33;4.00;;;;;;;;5037039;28;45314;-75
2022/07/26 05:55:05;;;;;;;;;6.00;3.33;;;;;;;;5036726;28;46602;-75
2022/07/26 05:57:31;;;;;;;;;3.00;3.00;;;;;;;;5036748;28;45427;-75
2022/07/26 05:59:56;;;;;;;;;6.00;3.00;;;;;;;;5036754;28;45419;-75
2022/07/26 06:02:21;;;;;;;;;3.00;3.00;;;;;;;;5036460;28;45505;-76
2022/07/26 06:04:46;;;;;;;;;5.00;3.00;;;;;;;;5036518;28;46046;-75
2022/07/26 06:07:12;;;;;;;;;7.00;5.00;;;;;;;;5036538;28;45281;-75
2022/07/26 06:09:37;;;;;;;;;3.00;3.00;;;;;;;;5036944;28;45368;-76
2022/07/26 06:12:02;;;;;;;;;5.33;3.00;;;;;;;;5036890;28;45285;-75
2022/07/26 06:14:28;;;;;;;;;3.00;3.00;;;;;;;;5036361;28;45571;-74
2022/07/26 06:16:54;;;;;;;;;4.67;4.00;;;;;;;;5038188;28;45173;-74
2022/07/26 06:19:19;;;;;;;;;4.67;3.33;;;;;;;;5039890;28;45252;-75
2022/07/26 06:21:44;;;;;;;;;7.67;7.67;;;;;;;;5040256;28;45365;-75
2022/07/26 06:24:10;;;;;;;;;5.00;4.00;;;;;;;;5039766;28;45561;-75
2022/07/26 06:26:35;;;;;;;;;4.00;4.00;;;;;;;;5039778;28;45398;-75
2022/07/26 06:29:00;;;;;;;;;5.00;4.00;;;;;;;;5039714;28;45734;-74
2022/07/26 06:31:26;;;;;;;;;3.00;2.67;;;;;;;;5039872;28;45311;-75
2022/07/26 06:33:51;;;;;;;;;2.00;2.00;;;;;;;;5039707;28;46958;-75
2022/07/26 06:36:16;;;;;;;;;4.67;3.00;;;;;;;;5039771;28;45251;-75
2022/07/26 06:38:41;;;;;;;;;4.00;3.00;;;;;;;;5039747;28;45396;-75
2022/07/26 06:41:07;;;;;;;;;2.00;2.00;;;;;;;;5039757;28;45231;-75
2022/07/26 06:43:32;;;;;;;;;3.00;3.00;;;;;;;;5039287;28;47283;-75
2022/07/26 06:45:57;;;;;;;;;6.67;3.00;;;;;;;;5039598;28;45385;-74
2022/07/26 06:48:22;;;;;;;;;2.00;2.00;;;;;;;;5039591;28;45383;-74
2022/07/26 06:50:48;;;;;;;;;6.67;4.00;;;;;;;;5039865;28;45319;-75
2022/07/26 06:53:13;;;;;;;;;4.33;3.00;;;;;;;;5038904;28;45262;-74
2022/07/26 06:55:39;;;;;;;;;3.33;3.33;;;;;;;;5039337;28;45476;-74
2022/07/26 06:58:04;;;;;;;;;7.33;3.00;;;;;;;;5039524;28;45401;-75
2022/07/26 07:00:29;;;;;;;;;6.67;4.00;;;;;;;;5039403;28;45293;-76
2022/07/26 07:02:54;;;;;;;;;6.00;2.00;;;;;;;;5039252;28;46665;-74
2022/07/26 07:05:20;;;;;;;;;10.67;7.67;;;;;;;;5039163;28;45414;-75
2022/07/26 07:07:45;;;;;;;;;4.00;3.00;;;;;;;;5039243;28;45306;-75
2022/07/26 07:10:10;;;;;;;;;19.00;9.33;;;;;;;;5039488;28;45396;-75
2022/07/26 07:12:35;;;;;;;;;3.67;3.00;;;;;;;;5039020;28;46416;-74
2022/07/26 07:15:01;;;;;;;;;3.00;3.00;;;;;;;;5038929;28;45285;-75
2022/07/26 07:17:26;;;;;;;;;8.67;8.67;;;;;;;;5039173;28;45291;-74
2022/07/26 07:19:51;;;;;;;;;3.00;3.00;;;;;;;;5039186;28;45358;-75
2022/07/26 07:22:16;;;;;;;;;6.00;4.67;;;;;;;;5038404;28;45588;-75
2022/07/26 07:24:42;;;;;;;;;4.00;2.67;;;;;;;;5038822;28;45400;-73
2022/07/26 07:27:07;;;;;;;;;5.00;2.00;;;;;;;;5038934;28;45290;-73
2022/07/26 07:29:33;;;;;;;;;3.00;3.00;;;;;;;;5039052;28;45363;-75
2022/07/26 07:31:58;;;;;;;;;7.00;4.00;;;;;;;;5038510;28;46313;-75
2022/07/26 07:34:23;;;;;;;;;4.00;4.00;;;;;;;;5038827;28;45287;-74
2022/07/26 07:36:49;;;;;;;;;5.33;2.00;;;;;;;;5038774;28;45243;-76
2022/07/26 07:39:15;;;;;;;;;3.33;3.33;;;;;;;;5038942;28;45354;-74
2022/07/26 07:41:41;;;;;;;;;3.00;3.00;;;;;;;;5038477;28;46310;-76
2022/07/26 07:44:06;;;;;;;;;4.33;3.00;;;;;;;;5038432;28;45302;-75
2022/07/26 07:46:31;;;;;;;;;3.33;2.00;;;;;;;;5038548;28;45341;-75
2022/07/26 07:48:58;;;;;;;;;2.67;2.33;;;;;;;;5038738;28;45255;-75
2022/07/26 07:51:23;;;;;;;;;5.00;3.67;;;;;;;;5038448;28;46598;-75
2022/07/26 07:53:49;;;;;;;;;2.33;2.00;;;;;;;;5038296;28;45299;-75
2022/07/26 07:56:14;;;;;;;;;3.33;3.00;;;;;;;;5038500;28;45426;-75
2022/07/26 07:58:39;;;;;;;;;3.00;3.00;;;;;;;;5038647;28;45402;-75
2022/07/26 08:01:04;;;;;;;;;2.33;2.33;;;;;;;;5037986;28;46160;-76
2022/07/26 08:03:29;;;;;;;;;3.33;3.00;;;;;;;;5038029;28;45164;-76
2022/07/26 08:05:55;;;;;;;;;3.67;2.33;;;;;;;;5038456;28;45584;-76
2022/07/26 08:08:20;;;;;;;;;3.33;2.00;;;;;;;;5038380;28;45448;-75
2022/07/26 08:10:45;;;;;;;;;2.00;2.00;;;;;;;;5038145;28;46480;-75
2022/07/26 08:13:10;;;;;;;;;2.00;1.33;;;;;;;;5038207;28;45270;-75
2022/07/26 08:15:36;;;;;;;;;4.33;3.33;;;;;;;;5038307;28;45327;-75
2022/07/26 08:18:01;;;;;;;;;4.00;2.33;;;;;;;;5038287;28;45340;-76
2022/07/26 08:20:26;;;;;;;;;2.00;2.00;;;;;;;;5037980;28;45548;-75
2022/07/26 08:22:52;;;;;;;;;2.00;2.00;;;;;;;;5038151;28;45397;-74
2022/07/26 08:25:17;;;;;;;;;4.67;3.00;;;;;;;;5038024;28;45331;-76
2022/07/26 08:27:42;;;;;;;;;7.33;4.00;;;;;;;;5038004;28;45428;-74
2022/07/26 08:30:08;;;;;;;;;3.33;2.67;;;;;;;;5037728;28;46315;-74
2022/07/26 08:32:33;;;;;;;;;8.00;5.00;;;;;;;;5037769;28;45327;-73
2022/07/26 08:34:58;;;;;;;;;3.00;3.00;;;;;;;;5038076;28;45398;-75
2022/07/26 08:37:23;;;;;;;;;3.00;2.00;;;;;;;;5038030;28;45290;-75
2022/07/26 08:39:49;;;;;;;;;2.67;2.67;;;;;;;;5037245;28;46698;-76
2022/07/26 08:42:15;;;;;;;;;5.00;4.67;;;;;;;;5037517;28;45309;-75
2022/07/26 08:44:42;;;;;;;;;2.67;2.67;;;;;;;;5037541;28;45208;-76
2022/07/26 08:47:09;;;;;;;;;3.00;3.00;;;;;;;;5037576;28;45250;-76
2022/07/26 08:49:34;;;;;;;;;2.00;2.00;;;;;;;;5037472;28;46192;-75
2022/07/26 08:51:59;;;;;;;;;2.33;2.00;;;;;;;;5037636;28;45218;-75
2022/07/26 08:54:26;;;;;;;;;1.33;0.00;;;;;;;;5037637;28;45507;-75
2022/07/26 08:56:52;;;;;;;;;1.00;1.00;;;;;;;;5037664;28;45388;-75
2022/07/26 08:59:18;;;;;;;;;2.00;1.00;;;;;;;;5037380;28;47449;-75
2022/07/26 09:01:50;;;;;;;;;1.00;1.00;;;;;;;;5037148;28;45450;-75
2022/07/26 09:04:19;;;;;;;;;1.00;1.00;;;;;;;;5037278;28;45358;-76
2022/07/26 09:06:55;;;;;;;;;1.67;1.33;;;;;;;;5037383;28;45413;-74
2022/07/26 09:09:21;;;;;;;;;2.67;1.33;;;;;;;;5037183;28;46319;-74
2022/07/26 09:11:46;;;;;;;;;1.33;1.33;;;;;;;;5037367;28;45330;-76
2022/07/26 09:14:11;;;;;;;;;1.00;1.00;;;;;;;;5037496;28;45397;-76
2022/07/26 09:16:37;;;;;;;;;1.67;1.67;;;;;;;;5037401;28;45394;-74
2022/07/26 09:19:21;;;;;;;;;4.00;2.00;;;;;;;;5037217;28;46170;-74
2022/07/26 09:21:46;;;;;;;;;2.67;2.67;;;;;;;;5037118;28;45233;-75
2022/07/26 09:24:12;;;;;;;;;59.75;47.00;;;;;;;;5037151;28;45428;-73
2022/07/26 09:26:37;;;;;;;;;4.33;4.33;;;;;;;;5037597;28;45307;-76
2022/07/26 09:29:10;;;;;;;;;1.67;1.67;;;;;;;;5037071;28;46106;-74
2022/07/26 09:31:36;;;;;;;;;5.00;2.00;;;;;;;;5036770;28;45370;-75
2022/07/26 09:34:02;;;;;;;;;3.33;2.00;;;;;;;;5037000;28;45514;-76
2022/07/26 09:36:27;;;;;;;;;2.00;2.00;;;;;;;;5037272;28;45218;-75
2022/07/26 09:38:54;;;;;;;;;3.00;3.00;;;;;;;;5036744;28;46107;-75
2022/07/26 09:41:45;;;;;;;;;2.00;2.00;;;;;;;;5036970;28;45369;-74
2022/07/26 09:44:24;;;;;;;;;3.00;1.00;;;;;;;;5033761;28;45349;-74
2022/07/26 09:46:55;;;;;;;;;2.00;2.00;;;;;;;;5037151;28;45538;-75
2022/07/26 09:49:21;;;;;;;;;12.33;11.33;;;;;;;;5036652;28;46474;-75
2022/07/26 09:51:47;;;;;;;;;3.00;3.00;;;;;;;;5038007;28;45169;-73
2022/07/26 09:54:34;;;;;;;;;2.00;2.00;;;;;;;;5040278;28;45239;-75
2022/07/26 09:56:59;;;;;;;;;1.00;1.00;;;;;;;;5040234;28;45425;-76
2022/07/26 09:59:25;;;;;;;;;2.00;1.33;;;;;;;;5040196;28;46100;-75
2022/07/26 10:01:52;;;;;;;;;3.67;1.00;;;;;;;;5040090;28;45568;-76
2022/07/26 10:04:18;;;;;;;;;2.67;1.33;;;;;;;;5040051;28;45721;-75
2022/07/26 10:06:44;;;;;;;;;0.67;0.67;;;;;;;;5040323;28;45451;-75
2022/07/26 10:09:09;;;;;;;;;1.00;1.00;;;;;;;;5040083;28;45627;-75
2022/07/26 10:11:43;;;;;;;;;1.00;1.00;;;;;;;;5039947;28;45259;-75
2022/07/26 10:14:26;;;;;;;;;2.00;2.00;;;;;;;;5040375;28;45550;-76
2022/07/26 10:16:52;;;;;;;;;2.67;1.00;;;;;;;;5040322;28;45515;-76
2022/07/26 10:19:36;;;;;;;;;1.00;1.00;;;;;;;;5039673;28;46029;-75
2022/07/26 10:22:30;;;;;;;;;24.67;21.33;;;;;;;;5039583;28;45459;-76
2022/07/26 10:24:57;;;;;;;;;2.33;2.00;;;;;;;;4978043;28;45404;-77
2022/07/26 10:27:35;;;;;;;;;5.00;1.33;;;;;;;;4978724;28;45422;-74
2022/07/26 10:30:26;;;;;;;;;2.00;1.33;;;;;;;;4978053;28;46531;-76
2022/07/26 10:33:11;;;;;;;;;4.00;4.00;;;;;;;;4976032;28;45447;-76
2022/07/26 10:35:39;;;;;;;;;2.00;2.00;;;;;;;;4978219;28;45505;-76
2022/07/26 10:38:06;;;;;;;;;1.00;1.00;;;;;;;;4978314;28;45482;-75
2022/07/26 10:40:31;;;;;;;;;2.33;1.00;;;;;;;;4977922;28;46071;-76
2022/07/26 10:43:10;;;;;;;;;4.00;1.33;;;;;;;;4977837;28;45484;-76
2022/07/26 10:45:36;;;;;;;;;1.33;1.33;;;;;;;;4978131;28;45196;-75
2022/07/26 10:48:11;;;;;;;;;4.00;4.00;;;;;;;;4977962;28;45438;-75
2022/07/26 10:50:36;;;;;;;;;4.33;2.67;;;;;;;;4977834;28;47562;-74
2022/07/26 10:53:02;;;;;;;;;3.00;1.67;;;;;;;;4977875;28;45471;-75
2022/07/26 10:55:27;;;;;;;;;2.67;2.00;;;;;;;;4977653;28;45423;-76
2022/07/26 10:57:52;;;;;;;;;2.00;2.00;;;;;;;;4978225;28;45418;-74
2022/07/26 11:00:22;;;;;;;;;3.00;1.00;;;;;;;;4980424;28;46280;-76
2022/07/26 11:02:49;;;;;;;;;3.00;1.33;;;;;;;;5034613;28;45362;-74
2022/07/26 11:05:15;;;;;;;;;3.33;2.00;;;;;;;;5039272;28;45278;-76
2022/07/26 11:07:53;;;;;;;;;1.67;1.67;;;;;;;;5039304;28;45550;-74
2022/07/26 11:10:29;;;;;;;;;1.00;1.00;;;;;;;;5039073;28;46528;-74
2022/07/26 11:13:24;;;;;;;;;1.00;1.00;;;;;;;;5038966;28;45377;-76
2022/07/26 11:15:50;;;;;;;;;2.00;2.00;;;;;;;;4958099;28;45340;-76
2022/07/26 11:18:18;;;;;;;;;1.67;1.67;;;;;;;;4958092;28;45438;-76
2022/07/26 11:20:45;;;;;;;;;5.00;5.00;;;;;;;;4957130;28;46256;-76
2022/07/26 11:23:20;;;;;;;;;5.00;2.00;;;;;;;;4957828;28;45471;-76
2022/07/26 11:25:57;;;;;;;;;2.00;2.00;;;;;;;;4957917;28;45444;-76
2022/07/26 11:28:23;;;;;;;;;3.33;3.00;;;;;;;;4958128;28;45473;-75
2022/07/26 11:30:58;;;;;;;;;5.00;4.00;;;;;;;;4957650;28;46371;-74
2022/07/26 11:33:39;;;;;;;;;5.00;3.00;;;;;;;;4957761;28;45475;-74
2022/07/26 11:36:05;;;;;;;;;2.67;2.67;;;;;;;;4957779;28;45395;-74
2022/07/26 11:38:49;;;;;;;;;2.33;2.33;;;;;;;;4957870;28;45522;-75
2022/07/26 11:41:17;;;;;;;;;7.00;4.00;;;;;;;;4957366;28;46731;-75
2022/07/26 11:43:43;;;;;;;;;5.67;4.00;;;;;;;;4957411;28;45372;-74
2022/07/26 11:46:08;;;;;;;;;6.67;6.00;;;;;;;;4957500;28;45415;-76
2022/07/26 11:48:33;;;;;;;;;7.33;5.67;;;;;;;;4957884;28;45388;-75
2022/07/26 11:51:11;;;;;;;;;9.00;7.67;;;;;;;;4957401;28;46260;-75
2022/07/26 11:53:37;;;;;;;;;9.00;7.00;;;;;;;;5033118;28;45226;-75
2022/07/26 11:56:11;;;;;;;;;24.67;23.67;;;;;;;;5038316;28;45270;-75
2022/07/26 11:58:40;;;;;;;;;12.00;8.00;;;;;;;;5038548;28;45191;-76
2022/07/26 12:01:06;;;;;;;;;9.33;8.00;;;;;;;;5038013;28;47358;-74
2022/07/26 12:03:35;;;;;;;;;11.00;11.00;;;;;;;;5037920;28;45385;-75
2022/07/26 12:06:08;;;;;;;;;9.33;8.00;;;;;;;;5038142;28;45316;-77
2022/07/26 12:08:47;;;;;;;;;11.33;9.00;;;;;;;;5038376;28;45616;-75
2022/07/26 12:11:12;;;;;;;;;8.00;8.00;;;;;;;;5037726;28;47376;-76
2022/07/26 12:13:56;;;;;;;;;8.00;7.00;;;;;;;;5037282;28;45277;-75
2022/07/26 12:16:40;;;;;;;;;12.00;10.33;;;;;;;;5037970;28;45454;-77
2022/07/26 12:19:07;;;;;;;;;12.00;11.00;;;;;;;;5038181;28;45519;-75
2022/07/26 12:21:37;;;;;;;;;8.67;7.33;;;;;;;;5037703;28;47089;-76
2022/07/26 12:24:02;;;;;;;;;9.00;7.67;;;;;;;;5038100;28;45465;-75
2022/07/26 12:26:29;;;;;;;;;10.00;10.00;;;;;;;;5038054;28;45426;-75
2022/07/26 12:28:55;;;;;;;;;12.00;9.33;;;;;;;;5038202;28;45364;-76
2022/07/26 12:31:29;;;;;;;;;9.67;9.33;;;;;;;;5037421;28;46408;-75
2022/07/26 12:33:54;;;;;;;;;26.00;23.67;;;;;;;;5037613;28;45396;-76
2022/07/26 12:36:20;;;;;;;;;19.33;17.67;;;;;;;;5037776;28;45275;-76
2022/07/26 12:38:46;;;;;;;;;12.33;9.33;;;;;;;;5038014;28;45231;-76
2022/07/26 12:41:11;;;;;;;;;9.67;8.00;;;;;;;;5037386;28;46479;-77
2022/07/26 12:43:39;;;;;;;;;18.00;15.33;;;;;;;;5037666;28;45390;-77
2022/07/26 12:46:05;;;;;;;;;9.00;7.00;;;;;;;;5037398;28;45285;-76
2022/07/26 12:48:30;;;;;;;;;9.00;9.00;;;;;;;;5037670;28;45437;-75
2022/07/26 12:50:56;;;;;;;;;7.00;7.00;;;;;;;;5037487;28;46688;-77
2022/07/26 12:53:21;;;;;;;;;7.00;7.00;;;;;;;;5037616;28;45334;-75
2022/07/26 12:55:46;;;;;;;;;7.67;6.00;;;;;;;;5037691;28;45377;-75
2022/07/26 12:58:12;;;;;;;;;5.33;5.33;;;;;;;;5037914;28;45310;-77
2022/07/26 13:00:37;;;;;;;;;6.33;6.33;;;;;;;;5037338;28;45512;-75
2022/07/26 13:03:02;;;;;;;;;6.67;5.00;;;;;;;;5037099;28;45351;-76
2022/07/26 13:05:30;;;;;;;;;4.00;4.00;;;;;;;;5037571;28;45345;-74
2022/07/26 13:07:55;;;;;;;;;4.33;3.00;;;;;;;;5037670;28;45516;-76
2022/07/26 13:10:20;;;;;;;;;3.00;3.00;;;;;;;;5037166;28;47419;-76
2022/07/26 13:12:46;;;;;;;;;2.00;2.00;;;;;;;;5037303;28;45464;-74
2022/07/26 13:15:11;;;;;;;;;4.33;3.67;;;;;;;;5037332;28;45372;-75
2022/07/26 13:17:36;;;;;;;;;3.33;3.00;;;;;;;;5037128;28;45597;-75
2022/07/26 13:20:02;;;;;;;;;2.00;2.00;;;;;;;;5037088;28;46592;-76
2022/07/26 13:22:27;;;;;;;;;3.67;3.67;;;;;;;;5036936;28;45318;-75
2022/07/26 13:24:53;;;;;;;;;4.00;3.00;;;;;;;;5037223;28;45303;-75
2022/07/26 13:27:18;;;;;;;;;5.67;5.67;;;;;;;;5041311;28;45434;-76
2022/07/26 13:29:43;;;;;;;;;4.00;4.00;;;;;;;;5040541;28;46229;-76
2022/07/26 13:32:08;;;;;;;;;2.67;2.67;;;;;;;;5040508;28;45303;-75
2022/07/26 13:34:34;;;;;;;;;3.67;1.00;;;;;;;;5040893;28;45345;-74
2022/07/26 13:36:59;;;;;;;;;3.00;2.00;;;;;;;;5041112;28;45236;-75
2022/07/26 13:39:26;;;;;;;;;2.33;2.33;;;;;;;;5040517;28;45293;-74
2022/07/26 13:41:51;;;;;;;;;1.00;1.00;;;;;;;;5040511;28;45676;-75
2022/07/26 13:44:16;;;;;;;;;1.00;1.00;;;;;;;;5040649;28;45351;-74
2022/07/26 13:46:41;;;;;;;;;0.00;0.00;;;;;;;;5040705;28;45336;-75
2022/07/26 13:49:07;;;;;;;;;0.00;0.00;;;;;;;;5040330;28;45987;-76
2022/07/26 13:54:18;;;;;;;;;1.67;1.00;;;;;;;;5040258;28;45298;-74
2022/07/26 13:56:44;;;;;;;;;2.67;1.00;;;;;;;;5040436;28;45436;-76
2022/07/26 13:59:10;;;;;;;;;0.00;0.00;;;;;;;;5040245;28;45331;-76
2022/07/26 14:01:36;;;;;;;;;1.00;1.00;;;;;;;;5039947;28;45310;-75
2022/07/26 14:04:03;;;;;;;;;5.00;3.33;;;;;;;;5039683;28;45267;-76
2022/07/26 14:06:28;;;;;;;;;0.00;0.00;;;;;;;;5040323;28;45356;-75
2022/07/26 14:08:53;;;;;;;;;1.33;1.33;;;;;;;;5040145;28;46437;-76
2022/07/26 14:11:18;;;;;;;;;0.00;0.00;;;;;;;;5040160;28;45306;-75
2022/07/26 14:13:44;;;;;;;;;1.00;1.00;;;;;;;;5040227;28;45408;-75
2022/07/26 14:16:09;;;;;;;;;0.00;0.00;;;;;;;;5040596;28;45296;-74
2022/07/26 14:18:34;;;;;;;;;1.00;1.00;;;;;;;;5039858;28;46297;-75
2022/07/26 14:21:00;;;;;;;;;2.00;0.33;;;;;;;;5039997;28;45168;-76
2022/07/26 14:23:25;;;;;;;;;2.00;1.00;;;;;;;;5039988;28;45382;-75
2022/07/26 14:25:50;;;;;;;;;0.00;0.00;;;;;;;;5040316;28;45152;-76
2022/07/26 14:28:16;;;;;;;;;1.00;1.00;;;;;;;;5039905;28;45342;-75
2022/07/26 14:30:41;;;;;;;;;2.33;1.00;;;;;;;;5039736;28;45317;-76
2022/07/26 14:33:06;;;;;;;;;1.00;1.00;;;;;;;;5039745;28;45468;-74
2022/07/26 14:35:31;;;;;;;;;1.00;1.00;;;;;;;;5039934;28;45370;-75
2022/07/26 14:37:57;;;;;;;;;0.33;0.33;;;;;;;;5038693;28;45605;-74
2022/07/26 14:40:22;;;;;;;;;2.00;0.00;;;;;;;;5039770;28;45314;-74
2022/07/26 14:42:47;;;;;;;;;1.00;1.00;;;;;;;;5039727;28;45307;-75
2022/07/26 14:45:13;;;;;;;;;2.33;1.00;;;;;;;;5039737;28;45314;-76